sensor_id;sensor_type;location;lat;lon;timestamp;P1;durP1;ratioP1;P2;durP2;ratioP2
6412;SDS011;3239;48.714;9.472;2023-03-16T00:01:41;17.70;;;11.70;;
6412;SDS011;3239;48.714;9.472;2023-03-16T00:04:07;15.53;;;11.37;;
6412;SDS011;3239;48.714;9.472;2023-03-16T00:06:33;14.13;;;10.00;;
6412;SDS011;3239;48.714;9.472;2023-03-16T00:09:00;15.20;;;10.37;;
6412;SDS011;3239;48.714;9.472;2023-03-16T00:11:27;18.50;;;11.50;;
6412;SDS011;3239;48.714;9.472;2023-03-16T00:13:53;18.37;;;12.60;;
6412;SDS011;3239;48.714;9.472;2023-03-16T00:16:19;17.67;;;11.37;;
6412;SDS011;3239;48.714;9.472;2023-03-16T00:18:44;15.93;;;10.60;;
6412;SDS011;3239;48.714;9.472;2023-03-16T00:21:10;14.53;;;10.20;;
6412;SDS011;3239;48.714;9.472;2023-03-16T00:23:38;15.63;;;10.40;;
6412;SDS011;3239;48.714;9.472;2023-03-16T00:26:06;15.90;;;10.60;;
6412;SDS011;3239;48.714;9.472;2023-03-16T00:28:34;18.10;;;12.07;;
6412;SDS011;3239;48.714;9.472;2023-03-16T00:31:04;18.57;;;11.43;;
6412;SDS011;3239;48.714;9.472;2023-03-16T00:33:32;16.53;;;11.67;;
6412;SDS011;3239;48.714;9.472;2023-03-16T00:35:59;15.50;;;11.13;;
6412;SDS011;3239;48.714;9.472;2023-03-16T00:38:27;17.37;;;11.27;;
6412;SDS011;3239;48.714;9.472;2023-03-16T00:40:58;13.83;;;10.60;;
6412;SDS011;3239;48.714;9.472;2023-03-16T00:43:28;14.90;;;11.07;;
6412;SDS011;3239;48.714;9.472;2023-03-16T00:45:59;16.73;;;11.20;;
6412;SDS011;3239;48.714;9.472;2023-03-16T00:48:31;14.43;;;11.37;;
6412;SDS011;3239;48.714;9.472;2023-03-16T00:51:01;15.70;;;11.77;;
6412;SDS011;3239;48.714;9.472;2023-03-16T00:53:31;14.93;;;11.30;;
6412;SDS011;3239;48.714;9.472;2023-03-16T00:55:58;17.40;;;12.37;;
6412;SDS011;3239;48.714;9.472;2023-03-16T00:58:28;14.40;;;11.03;;
6412;SDS011;3239;48.714;9.472;2023-03-16T01:01:00;18.47;;;12.43;;
6412;SDS011;3239;48.714;9.472;2023-03-16T01:03:30;16.53;;;11.97;;
6412;SDS011;3239;48.714;9.472;2023-03-16T01:05:56;17.47;;;11.70;;
6412;SDS011;3239;48.714;9.472;2023-03-16T01:08:25;18.60;;;12.23;;
6412;SDS011;3239;48.714;9.472;2023-03-16T01:10:54;16.53;;;11.80;;
6412;SDS011;3239;48.714;9.472;2023-03-16T01:13:20;19.30;;;11.80;;
6412;SDS011;3239;48.714;9.472;2023-03-16T01:15:49;18.60;;;12.13;;
6412;SDS011;3239;48.714;9.472;2023-03-16T01:18:15;17.33;;;12.40;;
6412;SDS011;3239;48.714;9.472;2023-03-16T01:20:41;18.40;;;12.67;;
6412;SDS011;3239;48.714;9.472;2023-03-16T01:23:14;15.43;;;11.27;;
6412;SDS011;3239;48.714;9.472;2023-03-16T01:25:42;19.20;;;12.80;;
6412;SDS011;3239;48.714;9.472;2023-03-16T01:28:08;16.00;;;11.73;;
6412;SDS011;3239;48.714;9.472;2023-03-16T01:30:34;17.77;;;12.00;;
6412;SDS011;3239;48.714;9.472;2023-03-16T01:33:00;17.87;;;11.60;;
6412;SDS011;3239;48.714;9.472;2023-03-16T01:35:26;15.77;;;10.57;;
6412;SDS011;3239;48.714;9.472;2023-03-16T01:37:52;15.43;;;10.23;;
6412;SDS011;3239;48.714;9.472;2023-03-16T01:40:18;16.20;;;10.93;;
6412;SDS011;3239;48.714;9.472;2023-03-16T01:42:48;16.37;;;10.77;;
6412;SDS011;3239;48.714;9.472;2023-03-16T01:48:28;15.07;;;11.00;;
6412;SDS011;3239;48.714;9.472;2023-03-16T01:54:03;24.93;;;12.00;;
6412;SDS011;3239;48.714;9.472;2023-03-16T01:56:44;15.70;;;9.50;;
6412;SDS011;3239;48.714;9.472;2023-03-16T01:59:21;24.20;;;10.73;;
6412;SDS011;3239;48.714;9.472;2023-03-16T02:01:53;14.80;;;9.70;;
6412;SDS011;3239;48.714;9.472;2023-03-16T02:07:23;18.93;;;11.27;;
6412;SDS011;3239;48.714;9.472;2023-03-16T02:09:53;14.70;;;11.03;;
6412;SDS011;3239;48.714;9.472;2023-03-16T02:12:24;14.10;;;10.27;;
6412;SDS011;3239;48.714;9.472;2023-03-16T02:14:50;15.30;;;10.87;;
6412;SDS011;3239;48.714;9.472;2023-03-16T02:17:18;11.77;;;9.97;;
6412;SDS011;3239;48.714;9.472;2023-03-16T02:19:52;15.50;;;11.10;;
6412;SDS011;3239;48.714;9.472;2023-03-16T02:22:48;12.67;;;9.50;;
6412;SDS011;3239;48.714;9.472;2023-03-16T02:25:21;14.90;;;9.90;;
6412;SDS011;3239;48.714;9.472;2023-03-16T02:31:12;15.70;;;10.03;;
6412;SDS011;3239;48.714;9.472;2023-03-16T02:33:41;12.97;;;10.20;;
6412;SDS011;3239;48.714;9.472;2023-03-16T02:36:08;15.67;;;10.43;;
6412;SDS011;3239;48.714;9.472;2023-03-16T02:38:35;17.63;;;10.50;;
6412;SDS011;3239;48.714;9.472;2023-03-16T02:41:11;17.10;;;10.37;;
6412;SDS011;3239;48.714;9.472;2023-03-16T02:46:18;14.97;;;10.63;;
6412;SDS011;3239;48.714;9.472;2023-03-16T02:51:36;14.70;;;10.40;;
6412;SDS011;3239;48.714;9.472;2023-03-16T02:54:02;13.80;;;9.93;;
6412;SDS011;3239;48.714;9.472;2023-03-16T02:56:28;14.83;;;9.70;;
6412;SDS011;3239;48.714;9.472;2023-03-16T02:58:54;15.60;;;10.43;;
6412;SDS011;3239;48.714;9.472;2023-03-16T03:01:21;17.63;;;10.43;;
6412;SDS011;3239;48.714;9.472;2023-03-16T03:03:48;19.30;;;10.90;;
6412;SDS011;3239;48.714;9.472;2023-03-16T03:06:14;15.33;;;9.93;;
6412;SDS011;3239;48.714;9.472;2023-03-16T03:08:39;16.30;;;10.43;;
6412;SDS011;3239;48.714;9.472;2023-03-16T03:11:06;14.33;;;10.03;;
6412;SDS011;3239;48.714;9.472;2023-03-16T03:13:33;17.53;;;11.50;;
6412;SDS011;3239;48.714;9.472;2023-03-16T03:15:59;16.23;;;10.20;;
6412;SDS011;3239;48.714;9.472;2023-03-16T03:18:25;19.10;;;11.70;;
6412;SDS011;3239;48.714;9.472;2023-03-16T03:20:52;19.73;;;11.83;;
6412;SDS011;3239;48.714;9.472;2023-03-16T03:23:18;16.67;;;11.37;;
6412;SDS011;3239;48.714;9.472;2023-03-16T03:25:44;16.70;;;9.90;;
6412;SDS011;3239;48.714;9.472;2023-03-16T03:28:10;15.03;;;10.70;;
6412;SDS011;3239;48.714;9.472;2023-03-16T03:30:35;19.67;;;12.77;;
6412;SDS011;3239;48.714;9.472;2023-03-16T03:33:01;20.30;;;13.30;;
6412;SDS011;3239;48.714;9.472;2023-03-16T03:35:27;16.07;;;10.00;;
6412;SDS011;3239;48.714;9.472;2023-03-16T03:37:53;13.47;;;10.10;;
6412;SDS011;3239;48.714;9.472;2023-03-16T03:40:19;19.30;;;12.20;;
6412;SDS011;3239;48.714;9.472;2023-03-16T03:42:45;21.17;;;11.83;;
6412;SDS011;3239;48.714;9.472;2023-03-16T03:45:11;17.20;;;11.60;;
6412;SDS011;3239;48.714;9.472;2023-03-16T03:47:39;24.13;;;13.47;;
6412;SDS011;3239;48.714;9.472;2023-03-16T03:50:07;24.23;;;15.00;;
6412;SDS011;3239;48.714;9.472;2023-03-16T03:52:35;28.60;;;16.63;;
6412;SDS011;3239;48.714;9.472;2023-03-16T03:55:01;33.60;;;18.03;;
6412;SDS011;3239;48.714;9.472;2023-03-16T03:57:27;37.70;;;19.20;;
6412;SDS011;3239;48.714;9.472;2023-03-16T03:59:53;38.87;;;19.80;;
6412;SDS011;3239;48.714;9.472;2023-03-16T04:02:18;34.60;;;18.53;;
6412;SDS011;3239;48.714;9.472;2023-03-16T04:04:44;36.90;;;19.63;;
6412;SDS011;3239;48.714;9.472;2023-03-16T04:07:10;38.67;;;19.43;;
6412;SDS011;3239;48.714;9.472;2023-03-16T04:09:36;28.93;;;15.83;;
6412;SDS011;3239;48.714;9.472;2023-03-16T04:12:03;34.70;;;17.60;;
6412;SDS011;3239;48.714;9.472;2023-03-16T04:14:30;34.27;;;16.40;;
6412;SDS011;3239;48.714;9.472;2023-03-16T04:16:56;28.13;;;17.23;;
6412;SDS011;3239;48.714;9.472;2023-03-16T04:19:22;28.20;;;16.00;;
6412;SDS011;3239;48.714;9.472;2023-03-16T04:21:48;19.83;;;11.63;;
6412;SDS011;3239;48.714;9.472;2023-03-16T04:24:15;29.60;;;16.20;;
6412;SDS011;3239;48.714;9.472;2023-03-16T04:26:44;33.77;;;18.50;;
6412;SDS011;3239;48.714;9.472;2023-03-16T04:29:11;31.43;;;17.30;;
6412;SDS011;3239;48.714;9.472;2023-03-16T04:31:38;29.23;;;16.73;;
6412;SDS011;3239;48.714;9.472;2023-03-16T04:34:06;35.20;;;17.90;;
6412;SDS011;3239;48.714;9.472;2023-03-16T04:36:32;27.50;;;16.30;;
6412;SDS011;3239;48.714;9.472;2023-03-16T04:38:58;21.63;;;12.77;;
6412;SDS011;3239;48.714;9.472;2023-03-16T04:41:24;20.70;;;12.10;;
6412;SDS011;3239;48.714;9.472;2023-03-16T04:43:50;14.27;;;9.57;;
6412;SDS011;3239;48.714;9.472;2023-03-16T04:46:16;14.30;;;11.00;;
6412;SDS011;3239;48.714;9.472;2023-03-16T04:48:42;11.73;;;8.83;;
6412;SDS011;3239;48.714;9.472;2023-03-16T04:51:08;21.57;;;13.40;;
6412;SDS011;3239;48.714;9.472;2023-03-16T04:53:34;27.53;;;15.50;;
6412;SDS011;3239;48.714;9.472;2023-03-16T04:56:00;29.23;;;16.20;;
6412;SDS011;3239;48.714;9.472;2023-03-16T04:58:26;28.60;;;15.80;;
6412;SDS011;3239;48.714;9.472;2023-03-16T05:00:52;30.00;;;16.93;;
6412;SDS011;3239;48.714;9.472;2023-03-16T05:03:19;28.33;;;16.20;;
6412;SDS011;3239;48.714;9.472;2023-03-16T05:05:46;30.40;;;17.73;;
6412;SDS011;3239;48.714;9.472;2023-03-16T05:08:13;32.33;;;17.33;;
6412;SDS011;3239;48.714;9.472;2023-03-16T05:10:39;28.27;;;16.20;;
6412;SDS011;3239;48.714;9.472;2023-03-16T05:13:05;23.50;;;14.67;;
6412;SDS011;3239;48.714;9.472;2023-03-16T05:15:31;25.33;;;13.33;;
6412;SDS011;3239;48.714;9.472;2023-03-16T05:17:58;13.60;;;9.60;;
6412;SDS011;3239;48.714;9.472;2023-03-16T05:20:24;20.10;;;10.43;;
6412;SDS011;3239;48.714;9.472;2023-03-16T05:22:50;15.80;;;10.03;;
6412;SDS011;3239;48.714;9.472;2023-03-16T05:25:16;13.03;;;9.80;;
6412;SDS011;3239;48.714;9.472;2023-03-16T05:27:44;19.20;;;12.07;;
6412;SDS011;3239;48.714;9.472;2023-03-16T05:30:13;20.07;;;13.00;;
6412;SDS011;3239;48.714;9.472;2023-03-16T05:32:40;19.40;;;12.43;;
6412;SDS011;3239;48.714;9.472;2023-03-16T05:35:07;18.13;;;12.87;;
6412;SDS011;3239;48.714;9.472;2023-03-16T05:37:36;20.40;;;12.00;;
6412;SDS011;3239;48.714;9.472;2023-03-16T05:40:03;18.40;;;11.53;;
6412;SDS011;3239;48.714;9.472;2023-03-16T05:42:44;30.47;;;13.77;;
6412;SDS011;3239;48.714;9.472;2023-03-16T05:45:12;21.57;;;13.47;;
6412;SDS011;3239;48.714;9.472;2023-03-16T05:47:40;22.93;;;12.30;;
6412;SDS011;3239;48.714;9.472;2023-03-16T05:50:11;16.57;;;11.60;;
6412;SDS011;3239;48.714;9.472;2023-03-16T05:52:40;19.33;;;12.70;;
6412;SDS011;3239;48.714;9.472;2023-03-16T05:55:11;23.17;;;13.20;;
6412;SDS011;3239;48.714;9.472;2023-03-16T05:57:46;22.97;;;13.37;;
6412;SDS011;3239;48.714;9.472;2023-03-16T06:00:12;22.97;;;13.60;;
6412;SDS011;3239;48.714;9.472;2023-03-16T06:02:44;21.13;;;11.53;;
6412;SDS011;3239;48.714;9.472;2023-03-16T06:05:13;24.60;;;14.43;;
6412;SDS011;3239;48.714;9.472;2023-03-16T06:07:41;21.80;;;13.30;;
6412;SDS011;3239;48.714;9.472;2023-03-16T06:10:07;25.87;;;14.27;;
6412;SDS011;3239;48.714;9.472;2023-03-16T06:12:43;21.23;;;13.17;;
6412;SDS011;3239;48.714;9.472;2023-03-16T06:15:12;22.47;;;12.80;;
6412;SDS011;3239;48.714;9.472;2023-03-16T06:17:38;20.40;;;12.93;;
6412;SDS011;3239;48.714;9.472;2023-03-16T06:20:06;21.40;;;12.97;;
6412;SDS011;3239;48.714;9.472;2023-03-16T06:22:37;22.07;;;13.40;;
6412;SDS011;3239;48.714;9.472;2023-03-16T06:25:05;23.53;;;12.80;;
6412;SDS011;3239;48.714;9.472;2023-03-16T06:27:33;19.63;;;12.20;;
6412;SDS011;3239;48.714;9.472;2023-03-16T06:30:00;19.40;;;11.70;;
6412;SDS011;3239;48.714;9.472;2023-03-16T06:32:26;17.17;;;11.90;;
6412;SDS011;3239;48.714;9.472;2023-03-16T06:34:51;22.07;;;12.37;;
6412;SDS011;3239;48.714;9.472;2023-03-16T06:37:17;18.20;;;12.17;;
6412;SDS011;3239;48.714;9.472;2023-03-16T06:39:43;16.73;;;12.57;;
6412;SDS011;3239;48.714;9.472;2023-03-16T06:42:09;14.83;;;9.97;;
6412;SDS011;3239;48.714;9.472;2023-03-16T06:44:35;15.57;;;11.30;;
6412;SDS011;3239;48.714;9.472;2023-03-16T06:47:01;13.43;;;10.33;;
6412;SDS011;3239;48.714;9.472;2023-03-16T06:49:28;18.73;;;11.13;;
6412;SDS011;3239;48.714;9.472;2023-03-16T06:51:54;13.47;;;10.57;;
6412;SDS011;3239;48.714;9.472;2023-03-16T06:54:22;18.00;;;11.23;;
6412;SDS011;3239;48.714;9.472;2023-03-16T06:56:48;47.27;;;15.00;;
6412;SDS011;3239;48.714;9.472;2023-03-16T06:59:15;17.30;;;9.80;;
6412;SDS011;3239;48.714;9.472;2023-03-16T07:01:40;14.03;;;10.33;;
6412;SDS011;3239;48.714;9.472;2023-03-16T07:04:08;13.20;;;10.13;;
6412;SDS011;3239;48.714;9.472;2023-03-16T07:06:34;11.53;;;9.90;;
6412;SDS011;3239;48.714;9.472;2023-03-16T07:09:00;15.67;;;9.97;;
6412;SDS011;3239;48.714;9.472;2023-03-16T07:11:26;12.33;;;9.77;;
6412;SDS011;3239;48.714;9.472;2023-03-16T07:13:51;12.27;;;9.67;;
6412;SDS011;3239;48.714;9.472;2023-03-16T07:16:17;11.90;;;9.07;;
6412;SDS011;3239;48.714;9.472;2023-03-16T07:18:43;12.40;;;9.27;;
6412;SDS011;3239;48.714;9.472;2023-03-16T07:21:09;10.83;;;9.37;;
6412;SDS011;3239;48.714;9.472;2023-03-16T07:23:35;13.10;;;8.80;;
6412;SDS011;3239;48.714;9.472;2023-03-16T07:26:01;11.90;;;8.90;;
6412;SDS011;3239;48.714;9.472;2023-03-16T07:28:27;12.77;;;8.83;;
6412;SDS011;3239;48.714;9.472;2023-03-16T07:30:53;11.90;;;8.90;;
6412;SDS011;3239;48.714;9.472;2023-03-16T07:33:19;11.10;;;9.00;;
6412;SDS011;3239;48.714;9.472;2023-03-16T07:35:46;11.53;;;9.00;;
6412;SDS011;3239;48.714;9.472;2023-03-16T07:38:12;12.87;;;8.97;;
6412;SDS011;3239;48.714;9.472;2023-03-16T07:40:38;8.97;;;8.00;;
6412;SDS011;3239;48.714;9.472;2023-03-16T07:43:04;10.57;;;9.13;;
6412;SDS011;3239;48.714;9.472;2023-03-16T07:45:30;11.73;;;9.17;;
6412;SDS011;3239;48.714;9.472;2023-03-16T07:47:56;9.90;;;8.70;;
6412;SDS011;3239;48.714;9.472;2023-03-16T07:50:22;8.30;;;7.50;;
6412;SDS011;3239;48.714;9.472;2023-03-16T07:52:48;10.13;;;8.30;;
6412;SDS011;3239;48.714;9.472;2023-03-16T07:55:14;9.20;;;7.73;;
6412;SDS011;3239;48.714;9.472;2023-03-16T07:57:40;15.00;;;8.03;;
6412;SDS011;3239;48.714;9.472;2023-03-16T08:00:06;9.47;;;8.47;;
6412;SDS011;3239;48.714;9.472;2023-03-16T08:02:34;9.23;;;7.53;;
6412;SDS011;3239;48.714;9.472;2023-03-16T08:05:00;7.53;;;6.80;;
6412;SDS011;3239;48.714;9.472;2023-03-16T08:07:26;9.40;;;6.80;;
6412;SDS011;3239;48.714;9.472;2023-03-16T08:09:51;8.13;;;7.33;;
6412;SDS011;3239;48.714;9.472;2023-03-16T08:12:17;8.93;;;6.57;;
6412;SDS011;3239;48.714;9.472;2023-03-16T08:14:43;11.53;;;7.20;;
6412;SDS011;3239;48.714;9.472;2023-03-16T08:17:10;9.80;;;7.63;;
6412;SDS011;3239;48.714;9.472;2023-03-16T08:19:36;9.93;;;6.93;;
6412;SDS011;3239;48.714;9.472;2023-03-16T08:22:03;8.00;;;7.20;;
6412;SDS011;3239;48.714;9.472;2023-03-16T08:24:30;13.50;;;7.20;;
6412;SDS011;3239;48.714;9.472;2023-03-16T08:26:57;7.40;;;6.30;;
6412;SDS011;3239;48.714;9.472;2023-03-16T08:29:24;8.60;;;7.13;;
6412;SDS011;3239;48.714;9.472;2023-03-16T08:31:54;8.10;;;6.47;;
6412;SDS011;3239;48.714;9.472;2023-03-16T08:34:20;9.30;;;6.90;;
6412;SDS011;3239;48.714;9.472;2023-03-16T08:36:47;7.03;;;6.33;;
6412;SDS011;3239;48.714;9.472;2023-03-16T08:39:13;7.43;;;6.40;;
6412;SDS011;3239;48.714;9.472;2023-03-16T08:41:39;8.23;;;6.50;;
6412;SDS011;3239;48.714;9.472;2023-03-16T08:44:07;10.40;;;6.90;;
6412;SDS011;3239;48.714;9.472;2023-03-16T08:46:34;9.70;;;5.83;;
6412;SDS011;3239;48.714;9.472;2023-03-16T08:49:00;9.47;;;6.70;;
6412;SDS011;3239;48.714;9.472;2023-03-16T08:51:26;9.33;;;5.80;;
6412;SDS011;3239;48.714;9.472;2023-03-16T08:53:53;6.97;;;6.27;;
6412;SDS011;3239;48.714;9.472;2023-03-16T08:56:19;6.20;;;5.30;;
6412;SDS011;3239;48.714;9.472;2023-03-16T08:58:45;7.10;;;5.90;;
6412;SDS011;3239;48.714;9.472;2023-03-16T09:01:15;8.07;;;5.97;;
6412;SDS011;3239;48.714;9.472;2023-03-16T09:03:44;6.60;;;5.20;;
6412;SDS011;3239;48.714;9.472;2023-03-16T09:06:10;6.60;;;5.20;;
6412;SDS011;3239;48.714;9.472;2023-03-16T09:08:39;5.00;;;4.60;;
6412;SDS011;3239;48.714;9.472;2023-03-16T09:11:10;6.20;;;4.60;;
6412;SDS011;3239;48.714;9.472;2023-03-16T09:13:38;5.57;;;4.90;;
6412;SDS011;3239;48.714;9.472;2023-03-16T09:16:06;6.07;;;4.10;;
6412;SDS011;3239;48.714;9.472;2023-03-16T09:18:34;5.90;;;4.60;;
6412;SDS011;3239;48.714;9.472;2023-03-16T09:21:01;5.00;;;3.90;;
6412;SDS011;3239;48.714;9.472;2023-03-16T09:23:29;5.57;;;4.43;;
6412;SDS011;3239;48.714;9.472;2023-03-16T09:26:01;8.37;;;4.80;;
6412;SDS011;3239;48.714;9.472;2023-03-16T09:28:31;5.00;;;4.27;;
6412;SDS011;3239;48.714;9.472;2023-03-16T09:30:59;5.97;;;4.30;;
6412;SDS011;3239;48.714;9.472;2023-03-16T09:33:27;5.43;;;4.93;;
6412;SDS011;3239;48.714;9.472;2023-03-16T09:35:54;5.07;;;4.17;;
6412;SDS011;3239;48.714;9.472;2023-03-16T09:38:21;6.03;;;4.70;;
6412;SDS011;3239;48.714;9.472;2023-03-16T09:40:54;5.97;;;3.70;;
6412;SDS011;3239;48.714;9.472;2023-03-16T09:46:47;6.23;;;4.60;;
6412;SDS011;3239;48.714;9.472;2023-03-16T09:49:15;4.20;;;3.80;;
6412;SDS011;3239;48.714;9.472;2023-03-16T09:52:03;5.03;;;4.53;;
6412;SDS011;3239;48.714;9.472;2023-03-16T09:54:52;10.10;;;4.80;;
6412;SDS011;3239;48.714;9.472;2023-03-16T09:58:17;5.20;;;4.70;;
6412;SDS011;3239;48.714;9.472;2023-03-16T10:01:24;8.07;;;4.43;;
6412;SDS011;3239;48.714;9.472;2023-03-16T10:13:38;5.43;;;4.20;;
6412;SDS011;3239;48.714;9.472;2023-03-16T10:16:07;5.03;;;4.33;;
6412;SDS011;3239;48.714;9.472;2023-03-16T10:18:49;5.03;;;3.90;;
6412;SDS011;3239;48.714;9.472;2023-03-16T10:21:26;4.90;;;4.13;;
6412;SDS011;3239;48.714;9.472;2023-03-16T10:23:55;5.30;;;4.27;;
6412;SDS011;3239;48.714;9.472;2023-03-16T10:26:28;4.50;;;4.10;;
6412;SDS011;3239;48.714;9.472;2023-03-16T10:29:03;5.30;;;3.70;;
6412;SDS011;3239;48.714;9.472;2023-03-16T10:31:37;5.80;;;3.73;;
6412;SDS011;3239;48.714;9.472;2023-03-16T10:34:05;3.87;;;3.57;;
6412;SDS011;3239;48.714;9.472;2023-03-16T10:36:33;5.43;;;3.67;;
6412;SDS011;3239;48.714;9.472;2023-03-16T10:39:04;3.50;;;3.00;;
6412;SDS011;3239;48.714;9.472;2023-03-16T10:41:37;7.50;;;3.50;;
6412;SDS011;3239;48.714;9.472;2023-03-16T10:44:11;4.70;;;3.73;;
6412;SDS011;3239;48.714;9.472;2023-03-16T10:49:28;3.50;;;3.03;;
6412;SDS011;3239;48.714;9.472;2023-03-16T10:55:18;3.77;;;3.23;;
6412;SDS011;3239;48.714;9.472;2023-03-16T10:57:56;3.40;;;3.10;;
6412;SDS011;3239;48.714;9.472;2023-03-16T11:00:33;4.00;;;3.57;;
6412;SDS011;3239;48.714;9.472;2023-03-16T11:03:11;5.37;;;2.80;;
6412;SDS011;3239;48.714;9.472;2023-03-16T11:06:03;4.37;;;3.10;;
6412;SDS011;3239;48.714;9.472;2023-03-16T11:08:33;3.47;;;2.60;;
6412;SDS011;3239;48.714;9.472;2023-03-16T11:11:16;3.73;;;2.80;;
6412;SDS011;3239;48.714;9.472;2023-03-16T11:13:54;4.30;;;2.43;;
6412;SDS011;3239;48.714;9.472;2023-03-16T11:16:40;3.60;;;2.33;;
6412;SDS011;3239;48.714;9.472;2023-03-16T11:19:34;4.20;;;2.87;;
6412;SDS011;3239;48.714;9.472;2023-03-16T11:22:12;2.93;;;2.30;;
6412;SDS011;3239;48.714;9.472;2023-03-16T11:28:07;3.80;;;2.60;;
6412;SDS011;3239;48.714;9.472;2023-03-16T11:30:43;4.73;;;2.50;;
6412;SDS011;3239;48.714;9.472;2023-03-16T11:33:46;3.97;;;2.63;;
6412;SDS011;3239;48.714;9.472;2023-03-16T11:36:19;4.67;;;2.70;;
6412;SDS011;3239;48.714;9.472;2023-03-16T11:42:25;3.10;;;2.17;;
6412;SDS011;3239;48.714;9.472;2023-03-16T11:45:15;2.10;;;1.90;;
6412;SDS011;3239;48.714;9.472;2023-03-16T11:57:07;1.70;;;1.50;;
6412;SDS011;3239;48.714;9.472;2023-03-16T12:00:02;3.70;;;2.07;;
6412;SDS011;3239;48.714;9.472;2023-03-16T12:06:01;3.03;;;2.17;;
6412;SDS011;3239;48.714;9.472;2023-03-16T12:20:23;3.70;;;1.90;;
6412;SDS011;3239;48.714;9.472;2023-03-16T12:22:48;2.10;;;1.90;;
6412;SDS011;3239;48.714;9.472;2023-03-16T12:25:28;3.07;;;1.80;;
6412;SDS011;3239;48.714;9.472;2023-03-16T12:28:19;4.13;;;2.07;;
6412;SDS011;3239;48.714;9.472;2023-03-16T12:34:18;4.67;;;2.57;;
6412;SDS011;3239;48.714;9.472;2023-03-16T12:42:41;2.47;;;1.80;;
6412;SDS011;3239;48.714;9.472;2023-03-16T12:45:57;3.17;;;2.33;;
6412;SDS011;3239;48.714;9.472;2023-03-16T12:48:36;2.40;;;1.80;;
6412;SDS011;3239;48.714;9.472;2023-03-16T12:51:13;2.57;;;1.67;;
6412;SDS011;3239;48.714;9.472;2023-03-16T12:56:42;2.10;;;1.50;;
6412;SDS011;3239;48.714;9.472;2023-03-16T12:59:20;4.17;;;1.70;;
6412;SDS011;3239;48.714;9.472;2023-03-16T13:01:49;2.83;;;1.90;;
6412;SDS011;3239;48.714;9.472;2023-03-16T13:04:28;2.37;;;1.73;;
6412;SDS011;3239;48.714;9.472;2023-03-16T13:07:06;4.10;;;1.90;;
6412;SDS011;3239;48.714;9.472;2023-03-16T13:09:46;4.50;;;2.13;;
6412;SDS011;3239;48.714;9.472;2023-03-16T13:12:21;2.93;;;1.97;;
6412;SDS011;3239;48.714;9.472;2023-03-16T13:14:50;1.93;;;1.70;;
6412;SDS011;3239;48.714;9.472;2023-03-16T13:19:45;2.77;;;1.67;;
6412;SDS011;3239;48.714;9.472;2023-03-16T13:22:50;3.43;;;2.20;;
6412;SDS011;3239;48.714;9.472;2023-03-16T13:25:41;4.23;;;2.40;;
6412;SDS011;3239;48.714;9.472;2023-03-16T13:28:34;2.63;;;2.37;;
6412;SDS011;3239;48.714;9.472;2023-03-16T13:31:02;7.37;;;3.23;;
6412;SDS011;3239;48.714;9.472;2023-03-16T13:33:43;2.83;;;1.97;;
6412;SDS011;3239;48.714;9.472;2023-03-16T13:36:12;2.70;;;2.50;;
6412;SDS011;3239;48.714;9.472;2023-03-16T13:38:39;3.10;;;2.50;;
6412;SDS011;3239;48.714;9.472;2023-03-16T13:41:09;3.50;;;3.20;;
6412;SDS011;3239;48.714;9.472;2023-03-16T13:43:40;3.03;;;2.73;;
6412;SDS011;3239;48.714;9.472;2023-03-16T13:46:20;4.50;;;2.70;;
6412;SDS011;3239;48.714;9.472;2023-03-16T13:48:53;4.23;;;2.90;;
6412;SDS011;3239;48.714;9.472;2023-03-16T13:51:24;4.00;;;2.50;;
6412;SDS011;3239;48.714;9.472;2023-03-16T13:54:15;3.80;;;2.73;;
6412;SDS011;3239;48.714;9.472;2023-03-16T13:57:00;10.60;;;3.40;;
6412;SDS011;3239;48.714;9.472;2023-03-16T13:59:28;3.00;;;2.70;;
6412;SDS011;3239;48.714;9.472;2023-03-16T14:01:55;3.47;;;3.17;;
6412;SDS011;3239;48.714;9.472;2023-03-16T14:04:30;3.80;;;3.03;;
6412;SDS011;3239;48.714;9.472;2023-03-16T14:06:59;3.73;;;3.20;;
6412;SDS011;3239;48.714;9.472;2023-03-16T14:09:29;3.57;;;2.83;;
6412;SDS011;3239;48.714;9.472;2023-03-16T14:11:59;4.03;;;3.43;;
6412;SDS011;3239;48.714;9.472;2023-03-16T14:14:26;3.50;;;3.10;;
6412;SDS011;3239;48.714;9.472;2023-03-16T14:17:10;3.70;;;3.40;;
6412;SDS011;3239;48.714;9.472;2023-03-16T14:19:52;3.50;;;3.20;;
6412;SDS011;3239;48.714;9.472;2023-03-16T14:22:34;3.97;;;3.60;;
6412;SDS011;3239;48.714;9.472;2023-03-16T14:25:02;3.80;;;3.30;;
6412;SDS011;3239;48.714;9.472;2023-03-16T14:27:41;4.93;;;3.50;;
6412;SDS011;3239;48.714;9.472;2023-03-16T14:30:22;3.80;;;2.90;;
6412;SDS011;3239;48.714;9.472;2023-03-16T14:33:01;4.07;;;2.77;;
6412;SDS011;3239;48.714;9.472;2023-03-16T14:35:52;3.67;;;3.00;;
6412;SDS011;3239;48.714;9.472;2023-03-16T14:38:25;4.60;;;3.50;;
6412;SDS011;3239;48.714;9.472;2023-03-16T14:43:58;3.47;;;3.13;;
6412;SDS011;3239;48.714;9.472;2023-03-16T14:46:46;3.80;;;2.70;;
6412;SDS011;3239;48.714;9.472;2023-03-16T14:49:19;4.47;;;3.37;;
6412;SDS011;3239;48.714;9.472;2023-03-16T14:54:56;3.70;;;3.40;;
6412;SDS011;3239;48.714;9.472;2023-03-16T14:57:23;4.73;;;3.53;;
6412;SDS011;3239;48.714;9.472;2023-03-16T14:59:50;3.63;;;3.33;;
6412;SDS011;3239;48.714;9.472;2023-03-16T15:02:19;3.67;;;2.97;;
6412;SDS011;3239;48.714;9.472;2023-03-16T15:04:53;5.20;;;3.90;;
6412;SDS011;3239;48.714;9.472;2023-03-16T15:07:25;4.10;;;3.40;;
6412;SDS011;3239;48.714;9.472;2023-03-16T15:09:54;5.27;;;3.10;;
6412;SDS011;3239;48.714;9.472;2023-03-16T15:12:43;3.80;;;3.33;;
6412;SDS011;3239;48.714;9.472;2023-03-16T15:15:15;2.70;;;2.50;;
6412;SDS011;3239;48.714;9.472;2023-03-16T15:17:44;2.77;;;2.50;;
6412;SDS011;3239;48.714;9.472;2023-03-16T15:20:11;7.10;;;2.83;;
6412;SDS011;3239;48.714;9.472;2023-03-16T15:22:40;3.70;;;2.90;;
6412;SDS011;3239;48.714;9.472;2023-03-16T15:28:15;3.23;;;2.70;;
6412;SDS011;3239;48.714;9.472;2023-03-16T15:30:44;3.47;;;2.03;;
6412;SDS011;3239;48.714;9.472;2023-03-16T15:33:17;4.20;;;2.57;;
6412;SDS011;3239;48.714;9.472;2023-03-16T15:35:44;3.43;;;2.47;;
6412;SDS011;3239;48.714;9.472;2023-03-16T15:38:17;3.30;;;2.30;;
6412;SDS011;3239;48.714;9.472;2023-03-16T15:41:07;3.87;;;2.50;;
6412;SDS011;3239;48.714;9.472;2023-03-16T15:43:35;5.07;;;3.10;;
6412;SDS011;3239;48.714;9.472;2023-03-16T15:46:01;2.90;;;2.00;;
6412;SDS011;3239;48.714;9.472;2023-03-16T15:48:29;2.83;;;2.13;;
6412;SDS011;3239;48.714;9.472;2023-03-16T15:50:59;2.37;;;1.70;;
6412;SDS011;3239;48.714;9.472;2023-03-16T15:53:34;3.80;;;1.97;;
6412;SDS011;3239;48.714;9.472;2023-03-16T15:56:15;2.37;;;1.70;;
6412;SDS011;3239;48.714;9.472;2023-03-16T15:58:46;3.90;;;1.90;;
6412;SDS011;3239;48.714;9.472;2023-03-16T16:01:35;2.97;;;1.70;;
6412;SDS011;3239;48.714;9.472;2023-03-16T16:04:14;2.33;;;1.50;;
6412;SDS011;3239;48.714;9.472;2023-03-16T16:06:45;2.70;;;1.77;;
6412;SDS011;3239;48.714;9.472;2023-03-16T16:09:13;2.63;;;2.03;;
6412;SDS011;3239;48.714;9.472;2023-03-16T16:11:39;1.90;;;1.60;;
6412;SDS011;3239;48.714;9.472;2023-03-16T16:14:07;3.77;;;2.47;;
6412;SDS011;3239;48.714;9.472;2023-03-16T16:16:42;5.80;;;1.80;;
6412;SDS011;3239;48.714;9.472;2023-03-16T16:19:13;2.97;;;1.70;;
6412;SDS011;3239;48.714;9.472;2023-03-16T16:21:40;2.33;;;1.70;;
6412;SDS011;3239;48.714;9.472;2023-03-16T16:24:07;3.03;;;1.47;;
6412;SDS011;3239;48.714;9.472;2023-03-16T16:26:35;2.63;;;1.70;;
6412;SDS011;3239;48.714;9.472;2023-03-16T16:29:11;10.63;;;2.73;;
6412;SDS011;3239;48.714;9.472;2023-03-16T16:31:40;1.93;;;1.60;;
6412;SDS011;3239;48.714;9.472;2023-03-16T16:34:13;4.30;;;2.00;;
6412;SDS011;3239;48.714;9.472;2023-03-16T16:36:42;4.80;;;1.87;;
6412;SDS011;3239;48.714;9.472;2023-03-16T16:39:09;5.20;;;1.80;;
6412;SDS011;3239;48.714;9.472;2023-03-16T16:41:35;2.80;;;1.80;;
6412;SDS011;3239;48.714;9.472;2023-03-16T16:44:03;4.80;;;1.90;;
6412;SDS011;3239;48.714;9.472;2023-03-16T16:46:35;4.77;;;2.27;;
6412;SDS011;3239;48.714;9.472;2023-03-16T16:49:12;6.13;;;2.03;;
6412;SDS011;3239;48.714;9.472;2023-03-16T16:51:51;6.30;;;3.73;;
6412;SDS011;3239;48.714;9.472;2023-03-16T16:54:18;4.60;;;3.33;;
6412;SDS011;3239;48.714;9.472;2023-03-16T16:56:46;3.50;;;2.23;;